Airfield :
LOGIN :

Register | Disclaimer

   EN    FR    IT 

 










Legend :    VFR   Marginal VFR   IFR   Intensive IFR   Very Intensive IFR
Visi :
Ceiling :
>= 8 km
>= 3000ft
5 to 8 km
1000 to 3000 ft
1500m to 5 km
500 to 1000 ft
800 to 1500m
200 to 500 ft
< 800m
< 200 ft
Symbols :   Thunderstorms  Fog  Heavy snow  Heavy precipitations  Wind > 20 kt
SIGMETs :     Misc.  Thunderstorms  Icing  Turbulence  Mountain Waves  Volcanic Ashes







- Airport Elevation : 122 ft
- IATA code : TXL


EDDT - Berlin Tegel Int.

CURRENT METAR :
  • 221950Z 07003KT 030V090 9999 FEW040 BKN054 M00/M05 Q1025 NOSIG

EXPIRED METARs :
  • 221920Z 07004KT 020V110 9999 FEW040 BKN054 00/M05 Q1025 NOSIG
  • 221850Z 05004KT 010V090 9999 FEW045 BKN057 00/M05 Q1025 NOSIG
  • 221820Z 05004KT 010V080 9999 FEW025 BKN057 01/M05 Q1025 NOSIG
  • 221750Z 06005KT 030V090 9999 FEW024 BKN039 01/M05 Q1025 NOSIG
  • 221720Z 07006KT 030V100 9999 -SN FEW019 SCT033 BKN057 01/M05 Q1025 NOSIG

TAF TAF EDDT
Valid from the 22 at 18:00 until the 23 at 18:00 UTC


221700Z 2218/2318 07006KT 9999 SCT040
No reported NOTAMs for that airfield.



MET'MAP, your aeronautical weather chart ! - Copyright ORBIFLY December 2007 - Disclaimer

ORBIFLY MET'MAP TEAM :

Programming & Development : Alexandra Zaïnal
Concept & Development : Baudouin d'Aumeries
Co-Development & Prog : Marc-Olivier Méhu
Technical & hardware support : Manuel Goepfert

Contact : metmap@orbifly.com




SOURCES & CREDITS :

   NOAA